sensor_id;sensor_type;location;lat;lon;timestamp;temperature;humidity
12819;DHT22;6474;53.474;9.894;2023-08-21T00:00:55;18.50;83.90
12819;DHT22;6474;53.474;9.894;2023-08-21T00:03:23;18.40;83.80
12819;DHT22;6474;53.474;9.894;2023-08-21T00:05:51;18.40;83.90
12819;DHT22;6474;53.474;9.894;2023-08-21T00:08:19;18.40;84.00
12819;DHT22;6474;53.474;9.894;2023-08-21T00:10:49;18.30;83.90
12819;DHT22;6474;53.474;9.894;2023-08-21T00:13:17;18.30;83.90
12819;DHT22;6474;53.474;9.894;2023-08-21T00:15:46;18.30;84.00
12819;DHT22;6474;53.474;9.894;2023-08-21T00:18:14;18.20;83.80
12819;DHT22;6474;53.474;9.894;2023-08-21T00:20:42;18.20;83.90
12819;DHT22;6474;53.474;9.894;2023-08-21T00:23:09;18.20;83.90
12819;DHT22;6474;53.474;9.894;2023-08-21T00:25:37;18.20;83.90
12819;DHT22;6474;53.474;9.894;2023-08-21T00:28:07;18.20;84.00
12819;DHT22;6474;53.474;9.894;2023-08-21T00:30:34;18.10;83.90
12819;DHT22;6474;53.474;9.894;2023-08-21T00:33:02;18.10;84.00
12819;DHT22;6474;53.474;9.894;2023-08-21T00:35:30;18.10;84.00
12819;DHT22;6474;53.474;9.894;2023-08-21T00:37:58;18.10;84.00
12819;DHT22;6474;53.474;9.894;2023-08-21T00:40:26;18.00;83.90
12819;DHT22;6474;53.474;9.894;2023-08-21T00:42:54;18.00;83.90
12819;DHT22;6474;53.474;9.894;2023-08-21T00:45:24;18.00;83.90
12819;DHT22;6474;53.474;9.894;2023-08-21T00:47:52;18.00;84.00
12819;DHT22;6474;53.474;9.894;2023-08-21T00:50:20;17.90;83.90
12819;DHT22;6474;53.474;9.894;2023-08-21T00:52:48;17.90;83.90
12819;DHT22;6474;53.474;9.894;2023-08-21T00:55:17;17.90;83.90
12819;DHT22;6474;53.474;9.894;2023-08-21T00:57:45;17.90;84.00
12819;DHT22;6474;53.474;9.894;2023-08-21T01:00:13;17.90;84.00
12819;DHT22;6474;53.474;9.894;2023-08-21T01:02:43;17.80;83.90
12819;DHT22;6474;53.474;9.894;2023-08-21T01:05:11;17.80;83.90
12819;DHT22;6474;53.474;9.894;2023-08-21T01:07:47;17.80;83.90
12819;DHT22;6474;53.474;9.894;2023-08-21T01:10:22;17.80;83.90
12819;DHT22;6474;53.474;9.894;2023-08-21T01:12:58;17.80;84.00
12819;DHT22;6474;53.474;9.894;2023-08-21T01:15:28;17.70;83.90
12819;DHT22;6474;53.474;9.894;2023-08-21T01:17:59;17.70;84.60
12819;DHT22;6474;53.474;9.894;2023-08-21T01:20:28;17.70;83.90
12819;DHT22;6474;53.474;9.894;2023-08-21T01:22:56;17.70;84.00
12819;DHT22;6474;53.474;9.894;2023-08-21T01:25:25;17.60;83.80
12819;DHT22;6474;53.474;9.894;2023-08-21T01:27:53;17.60;83.90
12819;DHT22;6474;53.474;9.894;2023-08-21T01:30:21;17.60;84.00
12819;DHT22;6474;53.474;9.894;2023-08-21T01:32:55;17.60;84.00
12819;DHT22;6474;53.474;9.894;2023-08-21T01:35:27;17.50;83.90
12819;DHT22;6474;53.474;9.894;2023-08-21T01:37:57;17.50;84.00
12819;DHT22;6474;53.474;9.894;2023-08-21T01:40:26;17.50;84.00
12819;DHT22;6474;53.474;9.894;2023-08-21T01:42:54;17.50;84.00
12819;DHT22;6474;53.474;9.894;2023-08-21T01:45:22;17.50;84.00
12819;DHT22;6474;53.474;9.894;2023-08-21T01:47:50;17.40;84.00
12819;DHT22;6474;53.474;9.894;2023-08-21T01:50:18;17.40;84.00
12819;DHT22;6474;53.474;9.894;2023-08-21T01:52:46;17.40;84.10
12819;DHT22;6474;53.474;9.894;2023-08-21T01:55:14;17.40;84.10
12819;DHT22;6474;53.474;9.894;2023-08-21T01:57:43;17.40;84.10
12819;DHT22;6474;53.474;9.894;2023-08-21T02:00:12;17.30;84.00
12819;DHT22;6474;53.474;9.894;2023-08-21T02:02:40;17.30;84.10
12819;DHT22;6474;53.474;9.894;2023-08-21T02:05:09;17.30;84.10
12819;DHT22;6474;53.474;9.894;2023-08-21T02:07:38;17.30;84.10
12819;DHT22;6474;53.474;9.894;2023-08-21T02:10:07;17.20;84.00
12819;DHT22;6474;53.474;9.894;2023-08-21T02:12:35;17.20;84.00
12819;DHT22;6474;53.474;9.894;2023-08-21T02:15:09;17.20;84.00
12819;DHT22;6474;53.474;9.894;2023-08-21T02:17:39;17.20;84.00
12819;DHT22;6474;53.474;9.894;2023-08-21T02:20:10;17.10;84.00
12819;DHT22;6474;53.474;9.894;2023-08-21T02:22:38;17.10;84.00
12819;DHT22;6474;53.474;9.894;2023-08-21T02:25:07;17.10;84.00
12819;DHT22;6474;53.474;9.894;2023-08-21T02:27:35;17.10;84.10
12819;DHT22;6474;53.474;9.894;2023-08-21T02:30:03;17.10;84.00
12819;DHT22;6474;53.474;9.894;2023-08-21T02:32:33;17.10;84.00
12819;DHT22;6474;53.474;9.894;2023-08-21T02:35:02;17.00;84.00
12819;DHT22;6474;53.474;9.894;2023-08-21T02:37:29;17.10;84.10
12819;DHT22;6474;53.474;9.894;2023-08-21T02:39:57;17.00;84.00
12819;DHT22;6474;53.474;9.894;2023-08-21T02:42:26;17.00;84.00
12819;DHT22;6474;53.474;9.894;2023-08-21T02:44:55;16.90;83.90
12819;DHT22;6474;53.474;9.894;2023-08-21T02:47:22;17.00;84.10
12819;DHT22;6474;53.474;9.894;2023-08-21T02:49:52;17.00;84.10
12819;DHT22;6474;53.474;9.894;2023-08-21T02:52:19;16.90;84.00
12819;DHT22;6474;53.474;9.894;2023-08-21T02:54:47;16.90;84.00
12819;DHT22;6474;53.474;9.894;2023-08-21T02:57:15;16.90;84.00
12819;DHT22;6474;53.474;9.894;2023-08-21T02:59:43;16.80;84.00
12819;DHT22;6474;53.474;9.894;2023-08-21T03:02:11;16.90;84.10
12819;DHT22;6474;53.474;9.894;2023-08-21T03:04:39;16.80;84.00
12819;DHT22;6474;53.474;9.894;2023-08-21T03:07:08;16.80;84.00
12819;DHT22;6474;53.474;9.894;2023-08-21T03:09:36;16.80;84.10
12819;DHT22;6474;53.474;9.894;2023-08-21T03:12:05;16.80;84.10
12819;DHT22;6474;53.474;9.894;2023-08-21T03:14:33;16.80;84.10
12819;DHT22;6474;53.474;9.894;2023-08-21T03:17:01;16.80;84.10
12819;DHT22;6474;53.474;9.894;2023-08-21T03:19:29;16.70;84.00
12819;DHT22;6474;53.474;9.894;2023-08-21T03:21:56;16.70;84.10
12819;DHT22;6474;53.474;9.894;2023-08-21T03:24:26;16.70;84.00
12819;DHT22;6474;53.474;9.894;2023-08-21T03:26:53;16.70;84.10
12819;DHT22;6474;53.474;9.894;2023-08-21T03:29:21;16.70;84.10
12819;DHT22;6474;53.474;9.894;2023-08-21T03:31:49;16.70;84.10
12819;DHT22;6474;53.474;9.894;2023-08-21T03:34:17;16.70;84.10
12819;DHT22;6474;53.474;9.894;2023-08-21T03:36:45;16.70;84.10
12819;DHT22;6474;53.474;9.894;2023-08-21T03:39:13;16.60;84.00
12819;DHT22;6474;53.474;9.894;2023-08-21T03:41:42;16.70;84.10
12819;DHT22;6474;53.474;9.894;2023-08-21T03:44:10;16.60;84.00
12819;DHT22;6474;53.474;9.894;2023-08-21T03:46:38;16.60;84.00
12819;DHT22;6474;53.474;9.894;2023-08-21T03:49:05;16.60;84.00
12819;DHT22;6474;53.474;9.894;2023-08-21T03:51:33;16.60;84.10
12819;DHT22;6474;53.474;9.894;2023-08-21T03:54:01;16.60;84.10
12819;DHT22;6474;53.474;9.894;2023-08-21T03:56:29;16.60;84.10
12819;DHT22;6474;53.474;9.894;2023-08-21T03:58:58;16.60;84.10
12819;DHT22;6474;53.474;9.894;2023-08-21T04:01:26;16.50;84.00
12819;DHT22;6474;53.474;9.894;2023-08-21T04:03:54;16.50;84.10
12819;DHT22;6474;53.474;9.894;2023-08-21T04:06:22;16.60;84.30
12819;DHT22;6474;53.474;9.894;2023-08-21T04:08:50;16.50;84.20
12819;DHT22;6474;53.474;9.894;2023-08-21T04:11:17;16.50;84.20
12819;DHT22;6474;53.474;9.894;2023-08-21T04:13:45;16.50;84.20
12819;DHT22;6474;53.474;9.894;2023-08-21T04:16:14;16.50;84.30
12819;DHT22;6474;53.474;9.894;2023-08-21T04:18:44;16.50;84.20
12819;DHT22;6474;53.474;9.894;2023-08-21T04:21:12;16.50;84.30
12819;DHT22;6474;53.474;9.894;2023-08-21T04:23:40;16.50;84.20
12819;DHT22;6474;53.474;9.894;2023-08-21T04:26:07;16.50;84.20
12819;DHT22;6474;53.474;9.894;2023-08-21T04:28:36;16.50;84.20
12819;DHT22;6474;53.474;9.894;2023-08-21T04:31:05;16.50;84.20
12819;DHT22;6474;53.474;9.894;2023-08-21T04:33:34;16.50;84.20
12819;DHT22;6474;53.474;9.894;2023-08-21T04:36:03;16.60;84.40
12819;DHT22;6474;53.474;9.894;2023-08-21T04:38:31;16.60;84.30
12819;DHT22;6474;53.474;9.894;2023-08-21T04:41:06;16.70;84.40
12819;DHT22;6474;53.474;9.894;2023-08-21T04:43:34;16.70;84.50
12819;DHT22;6474;53.474;9.894;2023-08-21T04:46:02;16.90;84.60
12819;DHT22;6474;53.474;9.894;2023-08-21T04:48:30;16.90;84.30
12819;DHT22;6474;53.474;9.894;2023-08-21T04:50:59;17.00;84.30
12819;DHT22;6474;53.474;9.894;2023-08-21T04:53:27;17.10;84.20
12819;DHT22;6474;53.474;9.894;2023-08-21T04:55:58;17.20;84.00
12819;DHT22;6474;53.474;9.894;2023-08-21T04:58:26;17.20;83.90
12819;DHT22;6474;53.474;9.894;2023-08-21T05:00:54;17.30;84.00
12819;DHT22;6474;53.474;9.894;2023-08-21T05:03:22;17.30;83.90
12819;DHT22;6474;53.474;9.894;2023-08-21T05:05:53;17.30;83.80
12819;DHT22;6474;53.474;9.894;2023-08-21T05:08:23;17.30;83.80
12819;DHT22;6474;53.474;9.894;2023-08-21T05:10:55;17.30;83.80
12819;DHT22;6474;53.474;9.894;2023-08-21T05:13:23;17.30;84.50
12819;DHT22;6474;53.474;9.894;2023-08-21T05:15:52;17.40;83.80
12819;DHT22;6474;53.474;9.894;2023-08-21T05:18:21;17.40;83.80
12819;DHT22;6474;53.474;9.894;2023-08-21T05:20:50;17.40;83.70
12819;DHT22;6474;53.474;9.894;2023-08-21T05:23:18;17.40;83.70
12819;DHT22;6474;53.474;9.894;2023-08-21T05:25:49;17.50;83.70
12819;DHT22;6474;53.474;9.894;2023-08-21T05:28:16;17.50;83.60
12819;DHT22;6474;53.474;9.894;2023-08-21T05:30:46;17.60;83.70
12819;DHT22;6474;53.474;9.894;2023-08-21T05:33:14;17.60;83.60
12819;DHT22;6474;53.474;9.894;2023-08-21T05:35:42;17.60;83.60
12819;DHT22;6474;53.474;9.894;2023-08-21T05:38:10;17.70;83.60
12819;DHT22;6474;53.474;9.894;2023-08-21T05:40:39;17.70;83.60
12819;DHT22;6474;53.474;9.894;2023-08-21T05:43:09;17.70;84.00
12819;DHT22;6474;53.474;9.894;2023-08-21T05:45:37;17.80;83.60
12819;DHT22;6474;53.474;9.894;2023-08-21T05:48:05;17.80;83.50
12819;DHT22;6474;53.474;9.894;2023-08-21T05:50:33;17.90;83.60
12819;DHT22;6474;53.474;9.894;2023-08-21T05:53:03;17.90;83.50
12819;DHT22;6474;53.474;9.894;2023-08-21T05:55:31;17.90;83.50
12819;DHT22;6474;53.474;9.894;2023-08-21T05:57:59;18.00;83.60
12819;DHT22;6474;53.474;9.894;2023-08-21T06:00:29;18.00;83.50
12819;DHT22;6474;53.474;9.894;2023-08-21T06:02:59;18.10;83.50
12819;DHT22;6474;53.474;9.894;2023-08-21T06:05:27;18.20;83.50
12819;DHT22;6474;53.474;9.894;2023-08-21T06:07:54;18.20;83.40
12819;DHT22;6474;53.474;9.894;2023-08-21T06:10:22;18.30;83.50
12819;DHT22;6474;53.474;9.894;2023-08-21T06:12:50;18.40;83.40
12819;DHT22;6474;53.474;9.894;2023-08-21T06:15:20;18.50;83.40
12819;DHT22;6474;53.474;9.894;2023-08-21T06:17:49;18.60;83.30
12819;DHT22;6474;53.474;9.894;2023-08-21T06:20:18;18.70;83.30
12819;DHT22;6474;53.474;9.894;2023-08-21T06:22:46;18.80;83.30
12819;DHT22;6474;53.474;9.894;2023-08-21T06:25:14;18.90;83.30
12819;DHT22;6474;53.474;9.894;2023-08-21T06:27:42;18.90;83.10
12819;DHT22;6474;53.474;9.894;2023-08-21T06:30:24;19.00;83.00
12819;DHT22;6474;53.474;9.894;2023-08-21T06:32:54;19.10;83.00
12819;DHT22;6474;53.474;9.894;2023-08-21T06:35:22;19.20;83.00
12819;DHT22;6474;53.474;9.894;2023-08-21T06:37:50;19.20;82.80
12819;DHT22;6474;53.474;9.894;2023-08-21T06:40:20;19.30;82.80
12819;DHT22;6474;53.474;9.894;2023-08-21T06:42:48;19.30;82.70
12819;DHT22;6474;53.474;9.894;2023-08-21T06:45:17;19.40;82.60
12819;DHT22;6474;53.474;9.894;2023-08-21T06:47:45;19.40;82.50
12819;DHT22;6474;53.474;9.894;2023-08-21T06:50:15;19.50;82.40
12819;DHT22;6474;53.474;9.894;2023-08-21T06:52:43;19.50;82.40
12819;DHT22;6474;53.474;9.894;2023-08-21T06:55:11;19.50;82.40
12819;DHT22;6474;53.474;9.894;2023-08-21T06:57:39;19.60;82.50
12819;DHT22;6474;53.474;9.894;2023-08-21T07:00:07;19.60;82.50
12819;DHT22;6474;53.474;9.894;2023-08-21T07:02:36;19.60;82.50
12819;DHT22;6474;53.474;9.894;2023-08-21T07:05:04;19.70;82.60
12819;DHT22;6474;53.474;9.894;2023-08-21T07:07:35;19.70;82.50
12819;DHT22;6474;53.474;9.894;2023-08-21T07:10:04;19.80;82.60
12819;DHT22;6474;53.474;9.894;2023-08-21T07:12:32;19.80;82.60
12819;DHT22;6474;53.474;9.894;2023-08-21T07:14:59;19.80;82.60
12819;DHT22;6474;53.474;9.894;2023-08-21T07:17:27;19.90;82.80
12819;DHT22;6474;53.474;9.894;2023-08-21T07:19:55;19.90;82.70
12819;DHT22;6474;53.474;9.894;2023-08-21T07:22:23;20.00;82.90
12819;DHT22;6474;53.474;9.894;2023-08-21T07:24:52;20.00;82.80
12819;DHT22;6474;53.474;9.894;2023-08-21T07:27:20;20.10;82.90
12819;DHT22;6474;53.474;9.894;2023-08-21T07:29:48;20.10;82.90
12819;DHT22;6474;53.474;9.894;2023-08-21T07:32:16;20.10;83.70
12819;DHT22;6474;53.474;9.894;2023-08-21T07:34:44;20.20;83.00
12819;DHT22;6474;53.474;9.894;2023-08-21T07:37:11;20.20;83.00
12819;DHT22;6474;53.474;9.894;2023-08-21T07:39:39;20.30;83.10
12819;DHT22;6474;53.474;9.894;2023-08-21T07:42:10;20.30;83.10
12819;DHT22;6474;53.474;9.894;2023-08-21T07:44:38;20.30;83.10
12819;DHT22;6474;53.474;9.894;2023-08-21T07:47:06;20.40;83.30
12819;DHT22;6474;53.474;9.894;2023-08-21T07:49:34;20.40;83.30
12819;DHT22;6474;53.474;9.894;2023-08-21T07:52:03;20.50;83.40
12819;DHT22;6474;53.474;9.894;2023-08-21T07:54:31;20.50;83.40
12819;DHT22;6474;53.474;9.894;2023-08-21T07:56:59;20.50;83.40
12819;DHT22;6474;53.474;9.894;2023-08-21T07:59:28;20.60;83.50
12819;DHT22;6474;53.474;9.894;2023-08-21T08:01:56;20.60;83.50
12819;DHT22;6474;53.474;9.894;2023-08-21T08:04:24;20.70;83.60
12819;DHT22;6474;53.474;9.894;2023-08-21T08:06:51;20.70;83.60
12819;DHT22;6474;53.474;9.894;2023-08-21T08:09:19;20.70;83.60
12819;DHT22;6474;53.474;9.894;2023-08-21T08:11:47;20.80;83.70
12819;DHT22;6474;53.474;9.894;2023-08-21T08:14:15;20.90;83.80
12819;DHT22;6474;53.474;9.894;2023-08-21T08:16:44;20.90;83.80
12819;DHT22;6474;53.474;9.894;2023-08-21T08:19:12;20.90;83.80
12819;DHT22;6474;53.474;9.894;2023-08-21T08:21:40;21.00;83.90
12819;DHT22;6474;53.474;9.894;2023-08-21T08:24:08;21.00;83.90
12819;DHT22;6474;53.474;9.894;2023-08-21T08:26:36;21.00;83.60
12819;DHT22;6474;53.474;9.894;2023-08-21T08:29:04;21.00;83.60
12819;DHT22;6474;53.474;9.894;2023-08-21T08:31:32;21.00;83.90
12819;DHT22;6474;53.474;9.894;2023-08-21T08:34:01;21.00;83.90
12819;DHT22;6474;53.474;9.894;2023-08-21T08:36:29;21.00;83.90
12819;DHT22;6474;53.474;9.894;2023-08-21T08:38:57;21.00;83.90
12819;DHT22;6474;53.474;9.894;2023-08-21T08:41:33;21.10;84.00
12819;DHT22;6474;53.474;9.894;2023-08-21T08:44:01;21.10;84.00
12819;DHT22;6474;53.474;9.894;2023-08-21T08:46:29;21.20;84.10
12819;DHT22;6474;53.474;9.894;2023-08-21T08:48:58;21.20;83.80
12819;DHT22;6474;53.474;9.894;2023-08-21T08:51:30;21.30;83.80
12819;DHT22;6474;53.474;9.894;2023-08-21T08:54:00;21.30;83.80
12819;DHT22;6474;53.474;9.894;2023-08-21T08:56:28;21.40;83.80
12819;DHT22;6474;53.474;9.894;2023-08-21T08:58:56;21.40;83.70
12819;DHT22;6474;53.474;9.894;2023-08-21T09:01:24;21.50;83.70
12819;DHT22;6474;53.474;9.894;2023-08-21T09:03:51;21.50;83.60
12819;DHT22;6474;53.474;9.894;2023-08-21T09:06:19;21.50;83.60
12819;DHT22;6474;53.474;9.894;2023-08-21T09:08:55;21.60;83.60
12819;DHT22;6474;53.474;9.894;2023-08-21T09:11:24;21.70;83.60
12819;DHT22;6474;53.474;9.894;2023-08-21T09:13:53;21.80;83.50
12819;DHT22;6474;53.474;9.894;2023-08-21T09:16:23;21.80;83.40
12819;DHT22;6474;53.474;9.894;2023-08-21T09:18:52;21.90;83.40
12819;DHT22;6474;53.474;9.894;2023-08-21T09:21:22;22.00;84.20
12819;DHT22;6474;53.474;9.894;2023-08-21T09:23:58;22.00;83.30
12819;DHT22;6474;53.474;9.894;2023-08-21T09:26:47;22.10;83.20
12819;DHT22;6474;53.474;9.894;2023-08-21T09:29:15;22.20;83.30
12819;DHT22;6474;53.474;9.894;2023-08-21T09:31:43;22.30;83.30
12819;DHT22;6474;53.474;9.894;2023-08-21T09:34:12;22.30;83.10
12819;DHT22;6474;53.474;9.894;2023-08-21T09:36:40;22.40;83.00
12819;DHT22;6474;53.474;9.894;2023-08-21T09:39:15;22.40;83.00
12819;DHT22;6474;53.474;9.894;2023-08-21T09:41:54;22.50;83.00
12819;DHT22;6474;53.474;9.894;2023-08-21T09:44:22;22.60;83.00
12819;DHT22;6474;53.474;9.894;2023-08-21T09:46:50;22.70;83.00
12819;DHT22;6474;53.474;9.894;2023-08-21T09:49:19;22.70;82.80
12819;DHT22;6474;53.474;9.894;2023-08-21T09:51:48;22.80;82.80
12819;DHT22;6474;53.474;9.894;2023-08-21T09:54:17;22.90;82.80
12819;DHT22;6474;53.474;9.894;2023-08-21T09:56:46;23.00;82.80
12819;DHT22;6474;53.474;9.894;2023-08-21T09:59:17;23.00;82.70
12819;DHT22;6474;53.474;9.894;2023-08-21T10:01:46;23.00;82.70
12819;DHT22;6474;53.474;9.894;2023-08-21T10:04:17;22.90;82.50
12819;DHT22;6474;53.474;9.894;2023-08-21T10:06:47;22.90;82.60
12819;DHT22;6474;53.474;9.894;2023-08-21T10:09:17;22.90;82.60
12819;DHT22;6474;53.474;9.894;2023-08-21T10:11:45;23.00;82.60
12819;DHT22;6474;53.474;9.894;2023-08-21T10:14:13;23.10;82.60
12819;DHT22;6474;53.474;9.894;2023-08-21T10:16:41;23.10;82.40
12819;DHT22;6474;53.474;9.894;2023-08-21T10:19:14;23.10;82.30
12819;DHT22;6474;53.474;9.894;2023-08-21T10:21:42;23.20;82.30
12819;DHT22;6474;53.474;9.894;2023-08-21T10:24:27;23.20;82.30
12819;DHT22;6474;53.474;9.894;2023-08-21T10:26:59;23.30;82.20
12819;DHT22;6474;53.474;9.894;2023-08-21T10:29:27;23.40;82.20
12819;DHT22;6474;53.474;9.894;2023-08-21T10:32:01;23.20;82.00
12819;DHT22;6474;53.474;9.894;2023-08-21T10:34:34;23.30;82.10
12819;DHT22;6474;53.474;9.894;2023-08-21T10:37:07;23.40;82.00
12819;DHT22;6474;53.474;9.894;2023-08-21T10:39:54;23.50;82.00
12819;DHT22;6474;53.474;9.894;2023-08-21T10:42:37;23.60;81.90
12819;DHT22;6474;53.474;9.894;2023-08-21T10:45:11;23.60;81.60
12819;DHT22;6474;53.474;9.894;2023-08-21T10:47:39;23.50;81.40
12819;DHT22;6474;53.474;9.894;2023-08-21T10:50:08;23.50;81.60
12819;DHT22;6474;53.474;9.894;2023-08-21T10:52:39;23.50;81.60
12819;DHT22;6474;53.474;9.894;2023-08-21T10:55:10;23.60;81.70
12819;DHT22;6474;53.474;9.894;2023-08-21T10:57:39;23.70;81.60
12819;DHT22;6474;53.474;9.894;2023-08-21T11:00:09;23.80;81.60
12819;DHT22;6474;53.474;9.894;2023-08-21T11:02:39;23.80;81.60
12819;DHT22;6474;53.474;9.894;2023-08-21T11:05:09;23.90;81.50
12819;DHT22;6474;53.474;9.894;2023-08-21T11:07:39;24.00;81.50
12819;DHT22;6474;53.474;9.894;2023-08-21T11:10:11;24.00;81.30
12819;DHT22;6474;53.474;9.894;2023-08-21T11:12:50;24.10;81.30
12819;DHT22;6474;53.474;9.894;2023-08-21T11:15:19;24.20;81.10
12819;DHT22;6474;53.474;9.894;2023-08-21T11:17:57;24.30;81.00
12819;DHT22;6474;53.474;9.894;2023-08-21T11:20:29;24.20;80.90
12819;DHT22;6474;53.474;9.894;2023-08-21T11:22:58;24.20;81.00
12819;DHT22;6474;53.474;9.894;2023-08-21T11:25:29;24.20;81.00
12819;DHT22;6474;53.474;9.894;2023-08-21T11:27:57;24.20;81.00
12819;DHT22;6474;53.474;9.894;2023-08-21T11:30:25;24.10;80.90
12819;DHT22;6474;53.474;9.894;2023-08-21T11:33:05;24.00;81.00
12819;DHT22;6474;53.474;9.894;2023-08-21T11:35:33;24.00;81.40
12819;DHT22;6474;53.474;9.894;2023-08-21T11:38:00;24.00;81.30
12819;DHT22;6474;53.474;9.894;2023-08-21T11:40:30;24.10;81.30
12819;DHT22;6474;53.474;9.894;2023-08-21T11:43:00;24.10;81.30
12819;DHT22;6474;53.474;9.894;2023-08-21T11:45:28;24.10;81.20
12819;DHT22;6474;53.474;9.894;2023-08-21T11:47:58;24.20;81.20
12819;DHT22;6474;53.474;9.894;2023-08-21T11:50:26;24.10;80.90
12819;DHT22;6474;53.474;9.894;2023-08-21T11:52:55;24.00;81.00
12819;DHT22;6474;53.474;9.894;2023-08-21T11:55:22;24.00;81.00
12819;DHT22;6474;53.474;9.894;2023-08-21T11:57:52;23.90;81.00
12819;DHT22;6474;53.474;9.894;2023-08-21T12:00:27;23.90;81.20
12819;DHT22;6474;53.474;9.894;2023-08-21T12:02:57;24.00;81.20
12819;DHT22;6474;53.474;9.894;2023-08-21T12:05:27;24.10;81.20
12819;DHT22;6474;53.474;9.894;2023-08-21T12:07:55;24.20;81.10
12819;DHT22;6474;53.474;9.894;2023-08-21T12:10:23;24.30;81.00
12819;DHT22;6474;53.474;9.894;2023-08-21T12:12:53;24.40;81.00
12819;DHT22;6474;53.474;9.894;2023-08-21T12:15:22;24.40;80.70
12819;DHT22;6474;53.474;9.894;2023-08-21T12:17:50;24.40;80.50
12819;DHT22;6474;53.474;9.894;2023-08-21T12:20:18;24.50;80.60
12819;DHT22;6474;53.474;9.894;2023-08-21T12:22:46;24.50;80.60
12819;DHT22;6474;53.474;9.894;2023-08-21T12:25:14;24.50;80.60
12819;DHT22;6474;53.474;9.894;2023-08-21T12:27:43;24.60;80.70
12819;DHT22;6474;53.474;9.894;2023-08-21T12:30:17;24.60;80.70
12819;DHT22;6474;53.474;9.894;2023-08-21T12:32:44;24.50;80.60
12819;DHT22;6474;53.474;9.894;2023-08-21T12:35:12;24.60;80.60
12819;DHT22;6474;53.474;9.894;2023-08-21T12:37:40;24.60;80.40
12819;DHT22;6474;53.474;9.894;2023-08-21T12:40:09;24.60;80.40
12819;DHT22;6474;53.474;9.894;2023-08-21T12:42:37;24.60;80.40
12819;DHT22;6474;53.474;9.894;2023-08-21T12:45:05;24.70;80.40
12819;DHT22;6474;53.474;9.894;2023-08-21T12:47:35;24.80;80.30
12819;DHT22;6474;53.474;9.894;2023-08-21T12:50:04;24.80;80.30
12819;DHT22;6474;53.474;9.894;2023-08-21T12:52:32;24.80;80.20
12819;DHT22;6474;53.474;9.894;2023-08-21T12:55:00;24.80;80.10
12819;DHT22;6474;53.474;9.894;2023-08-21T12:57:31;24.80;80.10
12819;DHT22;6474;53.474;9.894;2023-08-21T12:59:59;24.90;80.10
12819;DHT22;6474;53.474;9.894;2023-08-21T13:02:26;24.90;80.10
12819;DHT22;6474;53.474;9.894;2023-08-21T13:04:56;25.00;80.10
12819;DHT22;6474;53.474;9.894;2023-08-21T13:07:24;25.00;80.00
12819;DHT22;6474;53.474;9.894;2023-08-21T13:09:52;25.00;79.90
12819;DHT22;6474;53.474;9.894;2023-08-21T13:12:22;25.10;79.80
12819;DHT22;6474;53.474;9.894;2023-08-21T13:14:52;25.10;79.80
12819;DHT22;6474;53.474;9.894;2023-08-21T13:17:20;25.10;79.70
12819;DHT22;6474;53.474;9.894;2023-08-21T13:19:48;25.10;79.70
12819;DHT22;6474;53.474;9.894;2023-08-21T13:22:17;25.20;79.70
12819;DHT22;6474;53.474;9.894;2023-08-21T13:24:45;25.20;79.70
12819;DHT22;6474;53.474;9.894;2023-08-21T13:27:13;25.30;79.60
12819;DHT22;6474;53.474;9.894;2023-08-21T13:29:41;25.20;79.50
12819;DHT22;6474;53.474;9.894;2023-08-21T13:32:09;25.20;79.60
12819;DHT22;6474;53.474;9.894;2023-08-21T13:34:37;25.10;79.40
12819;DHT22;6474;53.474;9.894;2023-08-21T13:37:05;25.10;79.50
12819;DHT22;6474;53.474;9.894;2023-08-21T13:39:34;25.10;79.50
12819;DHT22;6474;53.474;9.894;2023-08-21T13:42:02;25.10;79.60
12819;DHT22;6474;53.474;9.894;2023-08-21T13:44:30;25.10;79.70
12819;DHT22;6474;53.474;9.894;2023-08-21T13:46:59;25.10;79.50
12819;DHT22;6474;53.474;9.894;2023-08-21T13:49:27;25.10;79.50
12819;DHT22;6474;53.474;9.894;2023-08-21T13:51:55;25.10;79.40
12819;DHT22;6474;53.474;9.894;2023-08-21T13:54:23;25.20;79.30
12819;DHT22;6474;53.474;9.894;2023-08-21T13:56:52;25.20;79.20
12819;DHT22;6474;53.474;9.894;2023-08-21T13:59:20;25.20;79.20
12819;DHT22;6474;53.474;9.894;2023-08-21T14:01:48;25.30;79.20
12819;DHT22;6474;53.474;9.894;2023-08-21T14:04:17;25.30;79.00
12819;DHT22;6474;53.474;9.894;2023-08-21T14:06:44;25.30;78.90
12819;DHT22;6474;53.474;9.894;2023-08-21T14:09:14;25.40;78.80
12819;DHT22;6474;53.474;9.894;2023-08-21T14:11:42;25.40;78.70
12819;DHT22;6474;53.474;9.894;2023-08-21T14:14:11;25.40;78.80
12819;DHT22;6474;53.474;9.894;2023-08-21T14:16:39;25.40;78.70
12819;DHT22;6474;53.474;9.894;2023-08-21T14:19:09;25.30;78.70
12819;DHT22;6474;53.474;9.894;2023-08-21T14:21:37;25.30;78.70
12819;DHT22;6474;53.474;9.894;2023-08-21T14:24:05;25.30;78.70
12819;DHT22;6474;53.474;9.894;2023-08-21T14:26:34;25.30;79.40
12819;DHT22;6474;53.474;9.894;2023-08-21T14:29:02;25.30;78.60
12819;DHT22;6474;53.474;9.894;2023-08-21T14:31:31;25.30;78.60
12819;DHT22;6474;53.474;9.894;2023-08-21T14:33:59;25.30;78.50
12819;DHT22;6474;53.474;9.894;2023-08-21T14:36:27;25.30;78.40
12819;DHT22;6474;53.474;9.894;2023-08-21T14:38:55;25.30;78.50
12819;DHT22;6474;53.474;9.894;2023-08-21T14:41:23;25.30;78.50
12819;DHT22;6474;53.474;9.894;2023-08-21T14:43:51;25.30;78.50
12819;DHT22;6474;53.474;9.894;2023-08-21T14:46:18;25.30;78.40
12819;DHT22;6474;53.474;9.894;2023-08-21T14:49:07;25.20;78.40
12819;DHT22;6474;53.474;9.894;2023-08-21T14:51:35;25.20;78.50
12819;DHT22;6474;53.474;9.894;2023-08-21T14:54:04;25.20;78.50
12819;DHT22;6474;53.474;9.894;2023-08-21T14:56:32;25.20;78.60
12819;DHT22;6474;53.474;9.894;2023-08-21T14:58:59;25.20;78.60
12819;DHT22;6474;53.474;9.894;2023-08-21T15:01:27;25.10;78.50
12819;DHT22;6474;53.474;9.894;2023-08-21T15:03:55;25.10;78.50
12819;DHT22;6474;53.474;9.894;2023-08-21T15:06:24;25.00;78.50
12819;DHT22;6474;53.474;9.894;2023-08-21T15:08:53;25.00;78.70
12819;DHT22;6474;53.474;9.894;2023-08-21T15:11:21;25.00;78.70
12819;DHT22;6474;53.474;9.894;2023-08-21T15:13:48;24.90;78.60
12819;DHT22;6474;53.474;9.894;2023-08-21T15:16:17;24.90;78.70
12819;DHT22;6474;53.474;9.894;2023-08-21T15:18:45;24.80;78.60
12819;DHT22;6474;53.474;9.894;2023-08-21T15:21:14;24.80;78.70
12819;DHT22;6474;53.474;9.894;2023-08-21T15:23:43;24.80;78.70
12819;DHT22;6474;53.474;9.894;2023-08-21T15:26:11;24.70;78.60
12819;DHT22;6474;53.474;9.894;2023-08-21T15:28:39;24.70;78.60
12819;DHT22;6474;53.474;9.894;2023-08-21T15:31:06;24.70;78.60
12819;DHT22;6474;53.474;9.894;2023-08-21T15:33:36;24.60;78.60
12819;DHT22;6474;53.474;9.894;2023-08-21T15:36:04;24.60;78.60
12819;DHT22;6474;53.474;9.894;2023-08-21T15:38:32;24.60;78.60
12819;DHT22;6474;53.474;9.894;2023-08-21T15:41:01;24.60;78.60
12819;DHT22;6474;53.474;9.894;2023-08-21T15:43:29;24.60;78.60
12819;DHT22;6474;53.474;9.894;2023-08-21T15:45:57;24.50;78.50
12819;DHT22;6474;53.474;9.894;2023-08-21T15:48:25;24.50;78.50
12819;DHT22;6474;53.474;9.894;2023-08-21T15:50:53;24.50;78.50
12819;DHT22;6474;53.474;9.894;2023-08-21T15:53:22;24.40;78.40
12819;DHT22;6474;53.474;9.894;2023-08-21T15:55:50;24.40;78.40